Time;durP1;ratioP1;P1;durP2;ratioP2;P2;SDS_P1;SDS_P2;PMS_P1;PMS_P2;Temp;Humidity;BMP_temperature;BMP_pressure;BME280_temperature;BME280_humidity;BME280_pressure;Samples;Min_cycle;Max_cycle;Signal;HPM_P1;HPM_P2
2021/03/15 00:02:14;;;;;;;22.30;3.50;;;;;;;3.84;86.49;100715.00;4994931;28;20054;-78
2021/03/15 00:04:40;;;;;;;22.05;3.53;;;;;;;3.85;86.72;100723.59;4983932;28;20140;-81
2021/03/15 00:07:05;;;;;;;28.88;4.10;;;;;;;3.84;86.83;100711.56;5005213;28;20512;-80
2021/03/15 00:09:31;;;;;;;27.30;4.00;;;;;;;3.80;86.78;100713.53;4972211;28;20130;-79
2021/03/15 00:11:57;;;;;;;21.95;3.50;;;;;;;3.71;86.77;100698.56;5022252;28;20175;-80
2021/03/15 00:14:22;;;;;;;21.40;3.15;;;;;;;3.77;86.99;100718.94;4981999;28;20065;-82
2021/03/15 00:16:49;;;;;;;20.30;3.20;;;;;;;3.79;86.66;100721.44;4986425;28;20042;-79
2021/03/15 00:19:15;;;;;;;32.17;3.72;;;;;;;3.81;86.64;100711.78;4989849;28;20072;-76
2021/03/15 00:21:40;;;;;;;25.67;3.90;;;;;;;3.78;87.48;100717.16;4993668;28;20084;-79
2021/03/15 00:24:07;;;;;;;20.45;3.50;;;;;;;3.77;87.56;100707.72;4990384;28;20112;-79
2021/03/15 00:26:33;;;;;;;21.45;3.70;;;;;;;3.73;87.68;100701.06;5005260;28;20407;-79
2021/03/15 00:28:59;;;;;;;28.38;3.53;;;;;;;3.80;87.55;100712.69;5002516;28;20053;-80
2021/03/15 00:31:24;;;;;;;24.30;3.92;;;;;;;3.69;89.00;100711.66;5022438;28;20057;-81
2021/03/15 00:33:50;;;;;;;29.33;3.70;;;;;;;3.68;89.03;100707.41;5006902;28;20092;-80
2021/03/15 00:36:15;;;;;;;23.55;3.70;;;;;;;3.59;90.38;100696.81;4993457;28;20077;-80
2021/03/15 00:38:41;;;;;;;26.27;4.05;;;;;;;3.51;90.50;100711.13;4994059;28;20077;-81
2021/03/15 00:41:06;;;;;;;28.15;3.53;;;;;;;3.45;89.53;100706.34;4975486;28;20077;-80
2021/03/15 00:43:32;;;;;;;23.58;4.03;;;;;;;3.35;89.04;100700.09;5020869;28;20504;-80
2021/03/15 00:45:57;;;;;;;23.98;4.30;;;;;;;3.27;89.67;100710.97;5004016;28;20045;-80
2021/03/15 00:48:23;;;;;;;21.63;3.28;;;;;;;3.26;89.43;100706.72;4976431;28;20482;-79
2021/03/15 00:50:49;;;;;;;21.67;3.50;;;;;;;3.20;89.51;100709.72;4986763;28;20049;-80
2021/03/15 00:53:19;;;;;;;25.42;3.20;;;;;;;3.14;89.35;100706.69;4998685;28;20077;-79
2021/03/15 00:55:46;;;;;;;17.73;3.45;;;;;;;3.05;89.70;100708.09;4980496;28;20066;-78
2021/03/15 00:58:12;;;;;;;21.60;2.65;;;;;;;3.02;89.46;100690.19;4970771;28;20033;-82
2021/03/15 01:00:39;;;;;;;20.30;3.05;;;;;;;3.05;89.43;100706.38;5020181;28;20049;-79
2021/03/15 01:03:25;;;;;;;18.48;2.90;;;;;;;3.15;89.34;100706.59;5014412;28;20053;-79
2021/03/15 01:05:57;;;;;;;16.58;3.15;;;;;;;3.14;89.22;100701.50;4968136;28;20069;-77
2021/03/15 01:08:42;;;;;;;24.00;3.08;;;;;;;3.12;89.81;100693.81;4983415;28;20054;-80
2021/03/15 01:11:40;;;;;;;21.15;3.17;;;;;;;3.26;88.48;100695.53;4996524;28;20089;-80
2021/03/15 01:14:10;;;;;;;15.68;2.50;;;;;;;3.34;88.04;100698.44;4978719;28;20408;-79
2021/03/15 01:16:54;;;;;;;19.65;3.30;;;;;;;3.31;87.91;100693.44;4985842;28;20121;-80
2021/03/15 01:19:27;;;;;;;22.02;2.78;;;;;;;3.34;87.97;100695.84;4985040;28;20077;-78
2021/03/15 01:21:52;;;;;;;20.70;2.78;;;;;;;3.30;87.86;100686.63;5004224;28;20049;-79
2021/03/15 01:24:18;;;;;;;17.92;2.60;;;;;;;3.22;87.80;100674.16;5015345;28;20100;-79
2021/03/15 01:26:44;;;;;;;14.57;2.58;;;;;;;3.23;87.68;100673.22;5000301;28;20054;-79
2021/03/15 01:29:09;;;;;;;20.63;3.10;;;;;;;3.27;88.62;100674.66;5009658;28;20118;-79
2021/03/15 01:31:35;;;;;;;20.15;3.20;;;;;;;3.27;88.22;100674.66;4988806;28;20052;-79
2021/03/15 01:34:01;;;;;;;13.13;2.83;;;;;;;3.35;88.09;100670.75;5004188;28;20054;-80
2021/03/15 01:36:26;;;;;;;23.13;3.30;;;;;;;3.34;88.40;100662.16;4978932;28;20041;-78
2021/03/15 01:38:54;;;;;;;13.50;3.00;;;;;;;3.40;88.23;100658.31;4990048;28;20106;-81
2021/03/15 01:41:19;;;;;;;18.27;3.97;;;;;;;3.36;88.56;100657.69;5027025;28;20132;-79
2021/03/15 01:43:45;;;;;;;20.42;3.05;;;;;;;3.32;89.14;100664.00;4993428;28;20049;-79
2021/03/15 01:46:10;;;;;;;17.65;3.70;;;;;;;3.33;88.61;100650.09;4992720;28;20037;-78
2021/03/15 01:48:36;;;;;;;24.05;4.05;;;;;;;3.37;89.20;100653.31;5006558;28;20513;-80
2021/03/15 01:51:02;;;;;;;23.80;4.15;;;;;;;3.34;88.75;100645.78;4992482;28;20100;-81
2021/03/15 01:53:28;;;;;;;23.42;4.05;;;;;;;3.29;88.80;100639.09;4993827;28;20108;-79
2021/03/15 01:55:54;;;;;;;24.90;4.25;;;;;;;3.34;89.17;100641.41;4997959;28;20517;-79
2021/03/15 01:58:20;;;;;;;22.95;4.05;;;;;;;3.27;89.71;100635.78;4968434;28;20048;-79
2021/03/15 02:00:46;;;;;;;20.42;4.18;;;;;;;3.33;89.47;100629.34;5015654;28;20106;-79
2021/03/15 02:03:16;;;;;;;22.65;3.90;;;;;;;3.37;89.33;100637.78;4998539;28;20038;-80
2021/03/15 02:05:42;;;;;;;14.65;3.83;;;;;;;3.39;89.15;100644.53;4983091;28;20500;-79
2021/03/15 02:08:08;;;;;;;23.48;4.25;;;;;;;3.38;89.20;100635.06;4993002;28;20060;-79
2021/03/15 02:10:35;;;;;;;20.60;4.25;;;;;;;3.43;88.92;100647.75;4997658;28;20054;-80
2021/03/15 02:13:13;;;;;;;23.80;4.28;;;;;;;3.43;89.21;100639.97;4965360;28;20049;-79
2021/03/15 02:15:57;;;;;;;18.38;4.00;;;;;;;3.46;89.06;100634.56;4995530;28;20045;-80
2021/03/15 02:18:54;;;;;;;24.15;4.70;;;;;;;3.41;89.19;100636.63;4973563;28;20046;-79
2021/03/15 02:21:48;;;;;;;26.85;4.65;;;;;;;3.44;89.32;100636.44;4981487;28;20114;-80
2021/03/15 02:24:19;;;;;;;29.70;4.60;;;;;;;3.43;89.36;100627.81;4981359;28;20134;-80
2021/03/15 02:27:05;;;;;;;27.15;4.10;;;;;;;3.37;89.51;100617.03;5008553;28;20033;-79
2021/03/15 02:29:55;;;;;;;25.92;4.70;;;;;;;3.50;89.14;100625.63;5001969;28;20053;-79
2021/03/15 02:32:49;;;;;;;26.38;5.00;;;;;;;3.38;89.59;100616.94;5001637;28;20114;-80
2021/03/15 02:35:20;;;;;;;18.33;4.75;;;;;;;3.43;89.56;100621.81;5011855;28;20111;-79
2021/03/15 02:38:07;;;;;;;19.50;5.00;;;;;;;3.48;89.01;100617.13;5007657;28;20041;-80
2021/03/15 02:40:47;;;;;;;23.48;4.82;;;;;;;3.39;89.11;100597.00;4989632;28;20100;-81
2021/03/15 02:43:24;;;;;;;27.25;4.63;;;;;;;3.44;89.10;100613.09;4997949;28;20061;-81
2021/03/15 02:46:02;;;;;;;22.50;5.30;;;;;;;3.47;89.39;100611.13;4994997;28;20677;-81
2021/03/15 02:48:34;;;;;;;22.02;4.65;;;;;;;3.49;89.47;100608.44;4980075;28;20168;-80
2021/03/15 02:51:00;;;;;;;16.88;5.30;;;;;;;3.40;89.58;100606.47;4992819;28;20039;-81
2021/03/15 02:53:27;;;;;;;17.58;5.10;;;;;;;3.42;89.43;100610.59;5007952;28;20093;-80
2021/03/15 02:56:00;;;;;;;19.92;4.90;;;;;;;3.45;89.44;100609.59;5000671;28;20066;-80
2021/03/15 02:58:27;;;;;;;22.27;5.05;;;;;;;3.39;90.12;100597.84;5027583;28;20058;-81
2021/03/15 03:00:53;;;;;;;26.10;6.05;;;;;;;3.44;89.45;100606.13;4989333;28;20061;-79
2021/03/15 03:03:21;;;;;;;24.52;5.57;;;;;;;3.37;89.62;100599.72;4971730;28;20049;-80
2021/03/15 03:05:51;;;;;;;41.58;7.80;;;;;;;3.37;89.64;100596.28;4987567;28;20042;-81
2021/03/15 03:08:18;;;;;;;29.08;5.90;;;;;;;3.54;88.85;100608.94;4992420;28;20037;-78
2021/03/15 03:10:45;;;;;;;19.70;4.97;;;;;;;3.44;89.56;100603.53;4989228;28;20058;-79
2021/03/15 03:13:12;;;;;;;24.80;6.50;;;;;;;3.44;89.42;100606.13;4979572;28;20092;-78
2021/03/15 03:15:38;;;;;;;29.77;6.53;;;;;;;3.35;89.27;100590.38;4981958;28;20049;-79
2021/03/15 03:18:05;;;;;;;22.15;6.35;;;;;;;3.41;89.61;100603.75;4996038;28;20551;-79
2021/03/15 03:20:31;;;;;;;19.45;6.68;;;;;;;3.36;89.98;100599.81;4967728;28;20041;-79
2021/03/15 03:23:04;;;;;;;21.65;6.97;;;;;;;3.36;89.94;100600.66;5015703;28;20050;-79
2021/03/15 03:25:31;;;;;;;26.20;7.60;;;;;;;3.31;90.03;100588.00;4980355;28;20069;-80
2021/03/15 03:27:57;;;;;;;27.02;7.07;;;;;;;3.27;90.25;100588.31;4971025;28;20118;-78
2021/03/15 03:30:34;;;;;;;24.85;7.57;;;;;;;3.37;89.57;100591.94;4982066;28;20042;-79
2021/03/15 03:33:03;;;;;;;25.02;7.18;;;;;;;3.31;89.92;100598.38;4981653;28;20062;-79
2021/03/15 03:35:29;;;;;;;20.38;7.22;;;;;;;3.40;89.62;100603.88;4976725;28;20128;-79
2021/03/15 03:37:56;;;;;;;23.95;7.50;;;;;;;3.40;89.65;100598.69;4983374;28;20081;-78
2021/03/15 03:40:22;;;;;;;39.90;8.18;;;;;;;3.40;89.59;100593.50;4978657;28;20130;-79
2021/03/15 03:42:48;;;;;;;19.60;7.93;;;;;;;3.43;90.26;100607.09;4976584;28;20046;-79
2021/03/15 03:45:14;;;;;;;25.30;7.80;;;;;;;3.43;89.56;100601.06;4981857;28;20144;-79
2021/03/15 03:47:41;;;;;;;28.20;7.43;;;;;;;3.49;89.36;100603.25;4978658;28;20057;-80
2021/03/15 03:50:15;;;;;;;18.27;7.10;;;;;;;3.43;89.82;100585.53;5014543;28;20057;-79
2021/03/15 03:52:52;;;;;;;28.30;7.03;;;;;;;3.43;89.85;100593.28;4960532;28;20050;-80
2021/03/15 03:55:22;;;;;;;28.60;7.93;;;;;;;3.43;89.68;100590.72;4983119;28;20518;-78
2021/03/15 03:57:50;;;;;;;23.98;7.25;;;;;;;3.42;89.57;100584.66;4970526;28;20085;-80
2021/03/15 04:00:18;;;;;;;19.90;6.93;;;;;;;3.38;89.70;100582.41;4974516;28;20451;-80
2021/03/15 04:02:48;;;;;;;26.48;7.30;;;;;;;3.38;89.85;100587.59;4995981;28;20053;-81
2021/03/15 04:05:20;;;;;;;16.05;6.28;;;;;;;3.46;89.57;100591.28;4962626;28;20061;-79
2021/03/15 04:07:49;;;;;;;19.50;6.40;;;;;;;3.45;89.07;100589.66;4973661;28;20052;-81
2021/03/15 04:10:15;;;;;;;17.15;6.57;;;;;;;3.44;89.55;100589.75;4973558;28;20745;-80
2021/03/15 04:12:46;;;;;;;21.58;6.35;;;;;;;3.44;88.90;100584.56;5004503;28;20113;-79
2021/03/15 04:15:15;;;;;;;16.83;6.15;;;;;;;3.42;89.94;100589.84;4989026;28;20057;-79
2021/03/15 04:17:41;;;;;;;23.13;6.05;;;;;;;3.40;89.51;100583.94;5002443;28;20112;-79
2021/03/15 04:20:11;;;;;;;21.23;6.57;;;;;;;3.42;89.16;100587.25;4974001;28;20031;-79
2021/03/15 04:22:49;;;;;;;22.63;6.05;;;;;;;3.39;89.05;100581.44;4984136;28;20112;-79
2021/03/15 04:25:16;;;;;;;21.42;5.95;;;;;;;3.33;89.38;100579.28;4965318;28;21108;-80
2021/03/15 04:27:43;;;;;;;15.43;5.65;;;;;;;3.33;89.85;100582.69;5011640;28;20119;-78
2021/03/15 04:30:11;;;;;;;11.65;5.25;;;;;;;3.29;89.82;100578.66;4995268;28;20042;-79
2021/03/15 04:32:40;;;;;;;17.02;5.40;;;;;;;3.22;89.45;100573.06;4998250;28;20054;-80
2021/03/15 04:35:07;;;;;;;14.00;5.13;;;;;;;3.15;89.19;100569.22;4981320;28;20049;-78
2021/03/15 04:37:33;;;;;;;20.08;5.03;;;;;;;3.07;89.92;100577.50;4997925;28;20053;-78
2021/03/15 04:39:59;;;;;;;13.82;5.10;;;;;;;3.06;89.72;100570.66;4993770;28;20125;-78
2021/03/15 04:42:24;;;;;;;16.48;4.80;;;;;;;3.11;89.03;100591.91;4986068;28;20078;-79
2021/03/15 04:44:50;;;;;;;12.80;5.10;;;;;;;3.11;89.24;100581.56;5010816;28;20120;-79
2021/03/15 04:47:17;;;;;;;11.07;4.70;;;;;;;3.10;89.37;100582.47;4982022;28;20053;-79
2021/03/15 04:49:45;;;;;;;12.52;4.85;;;;;;;3.14;89.35;100590.06;5002008;28;20509;-79
2021/03/15 04:52:12;;;;;;;10.15;4.40;;;;;;;3.16;89.50;100594.19;4980173;28;20046;-80
2021/03/15 04:54:38;;;;;;;12.60;4.25;;;;;;;3.17;89.57;100603.66;4996063;28;20101;-79
2021/03/15 04:57:04;;;;;;;11.95;4.07;;;;;;;3.09;90.11;100583.44;4989009;28;20069;-79
2021/03/15 04:59:32;;;;;;;9.45;4.15;;;;;;;3.10;89.64;100576.47;5007172;28;20045;-80
2021/03/15 05:01:59;;;;;;;9.95;3.85;;;;;;;3.09;89.80;100570.47;4981041;28;20982;-80
2021/03/15 05:04:25;;;;;;;6.45;3.80;;;;;;;3.18;89.48;100583.72;4998369;28;20045;-80
2021/03/15 05:06:52;;;;;;;6.43;3.38;;;;;;;3.17;89.11;100577.72;4977134;28;20125;-79
2021/03/15 05:09:18;;;;;;;11.63;3.92;;;;;;;3.18;89.15;100581.13;5015648;28;20091;-80
2021/03/15 05:11:44;;;;;;;10.75;3.60;;;;;;;3.27;89.25;100588.31;4979585;28;20046;-80
2021/03/15 05:14:13;;;;;;;6.90;3.85;;;;;;;3.25;89.67;100582.38;4968585;28;20045;-79
2021/03/15 05:16:41;;;;;;;6.68;3.65;;;;;;;3.27;89.15;100575.34;4993559;28;20189;-80
2021/03/15 05:19:09;;;;;;;8.82;3.85;;;;;;;3.17;89.43;100558.75;5003414;28;20129;-79
2021/03/15 05:21:37;;;;;;;9.35;3.78;;;;;;;3.20;89.11;100577.53;4981908;28;20050;-80
2021/03/15 05:24:04;;;;;;;7.10;3.70;;;;;;;3.16;89.70;100570.03;5002067;28;20702;-79
2021/03/15 05:26:32;;;;;;;6.40;3.08;;;;;;;3.15;89.03;100561.44;4987357;28;20047;-78
2021/03/15 05:28:59;;;;;;;8.30;3.53;;;;;;;3.18;89.93;100569.00;4981891;28;20037;-80
2021/03/15 05:31:25;;;;;;;8.15;3.20;;;;;;;3.08;89.34;100553.25;4983898;28;20054;-81
2021/03/15 05:33:52;;;;;;;9.60;3.60;;;;;;;3.17;89.29;100563.94;4973405;28;20117;-79
2021/03/15 05:36:20;;;;;;;9.20;4.00;;;;;;;3.17;89.35;100567.34;4979271;28;20042;-79
2021/03/15 05:38:45;;;;;;;5.30;3.38;;;;;;;3.22;89.64;100561.84;4979057;28;20784;-79
2021/03/15 05:41:13;;;;;;;9.80;3.40;;;;;;;3.20;89.44;100561.13;4982455;28;20125;-79
2021/03/15 05:43:57;;;;;;;6.57;3.20;;;;;;;3.21;89.94;100560.22;4984704;28;20050;-80
2021/03/15 05:46:41;;;;;;;12.27;3.75;;;;;;;3.26;89.56;100565.91;4990617;28;20044;-79
2021/03/15 05:49:29;;;;;;;9.98;3.63;;;;;;;3.23;89.92;100560.94;4980020;28;20050;-81
2021/03/15 05:52:19;;;;;;;8.13;3.53;;;;;;;3.29;89.57;100556.16;4982957;28;20041;-80
2021/03/15 05:55:08;;;;;;;11.07;3.80;;;;;;;3.27;89.94;100558.00;5006041;28;20139;-79
2021/03/15 05:58:03;;;;;;;10.48;3.40;;;;;;;3.30;89.49;100554.41;4978750;28;20046;-79
2021/03/15 06:00:59;;;;;;;7.47;3.83;;;;;;;3.29;89.65;100558.72;4975136;28;20074;-80
2021/03/15 06:03:47;;;;;;;13.85;3.72;;;;;;;3.35;88.64;100554.06;4978320;28;20054;-78
2021/03/15 06:06:19;;;;;;;11.95;4.10;;;;;;;3.38;88.71;100562.47;4995209;28;20041;-80
2021/03/15 06:08:47;;;;;;;7.90;3.60;;;;;;;3.37;89.19;100559.97;5027554;28;20523;-80
2021/03/15 06:11:18;;;;;;;13.70;3.95;;;;;;;3.40;88.73;100564.97;4991991;28;20347;-78
2021/03/15 06:13:45;;;;;;;9.50;4.22;;;;;;;3.43;88.41;100562.19;4971121;28;20120;-79
2021/03/15 06:16:11;;;;;;;12.65;3.80;;;;;;;3.46;88.80;100565.38;5009401;28;20065;-80
2021/03/15 06:18:38;;;;;;;12.00;4.10;;;;;;;3.48;88.83;100560.09;4981627;28;20049;-79
2021/03/15 06:21:04;;;;;;;13.00;4.15;;;;;;;3.54;88.59;100566.63;4992212;28;20079;-79
2021/03/15 06:23:30;;;;;;;11.85;3.97;;;;;;;3.45;88.54;100544.75;4970862;28;20045;-80
2021/03/15 06:25:56;;;;;;;11.80;4.80;;;;;;;3.55;87.92;100544.94;4977308;28;20097;-78
2021/03/15 06:28:24;;;;;;;15.00;4.60;;;;;;;3.57;88.35;100554.25;4976430;28;20054;-79
2021/03/15 06:30:54;;;;;;;13.45;4.50;;;;;;;3.59;88.28;100538.59;4972082;28;20030;-78
2021/03/15 06:33:20;;;;;;;12.52;4.57;;;;;;;3.52;87.98;100530.41;4990795;28;20095;-79
2021/03/15 06:35:48;;;;;;;13.68;4.05;;;;;;;3.61;88.25;100544.50;4988294;28;20046;-78
2021/03/15 06:38:17;;;;;;;19.95;4.57;;;;;;;3.63;87.92;100545.22;4977705;28;20052;-79
2021/03/15 06:40:44;;;;;;;17.85;4.18;;;;;;;3.75;87.94;100540.94;5007447;28;20045;-79
2021/03/15 06:43:14;;;;;;;15.98;4.90;;;;;;;3.76;87.64;100533.06;4971427;28;20038;-78
2021/03/15 06:45:45;;;;;;;16.25;3.83;;;;;;;3.77;86.90;100524.34;4980612;28;20436;-80
2021/03/15 06:48:11;;;;;;;17.95;3.88;;;;;;;3.87;86.82;100538.31;4965021;28;20050;-81
2021/03/15 06:50:37;;;;;;;18.77;4.30;;;;;;;3.92;87.31;100537.16;4990653;28;20053;-80
2021/03/15 06:53:02;;;;;;;18.67;3.95;;;;;;;3.95;86.98;100527.41;4997565;28;20033;-79
2021/03/15 06:55:29;;;;;;;15.07;4.80;;;;;;;3.93;87.98;100528.44;4989620;28;20050;-81
2021/03/15 06:57:55;;;;;;;12.88;4.32;;;;;;;3.85;87.83;100524.63;4978921;28;20132;-78
2021/03/15 07:00:25;;;;;;;11.88;4.22;;;;;;;3.82;87.88;100511.03;4974952;28;20046;-78
2021/03/15 07:03:02;;;;;;;17.40;4.35;;;;;;;3.83;87.96;100518.72;4987337;28;20049;-78
2021/03/15 07:05:30;;;;;;;17.05;3.90;;;;;;;3.85;88.17;100524.63;4993317;28;20057;-79
2021/03/15 07:07:58;;;;;;;14.02;3.90;;;;;;;3.86;88.89;100528.91;5012035;28;20050;-78
2021/03/15 07:10:27;;;;;;;14.75;3.88;;;;;;;3.87;88.32;100530.53;4988508;28;20073;-79
2021/03/15 07:13:15;;;;;;;14.60;4.50;;;;;;;3.80;88.41;100518.94;4990655;28;20046;-80
2021/03/15 07:15:45;;;;;;;16.35;4.05;;;;;;;3.84;88.46;100516.94;5013930;28;20129;-79
2021/03/15 07:18:24;;;;;;;16.58;4.20;;;;;;;3.92;88.96;100522.44;4990765;28;20050;-80
2021/03/15 07:20:54;;;;;;;13.15;4.03;;;;;;;3.93;88.70;100521.50;4988381;28;20059;-78
2021/03/15 07:23:43;;;;;;;15.00;4.03;;;;;;;3.90;89.01;100522.53;4990689;28;20061;-82
2021/03/15 07:26:21;;;;;;;14.73;4.15;;;;;;;3.73;90.28;100512.53;4995899;28;20507;-79
2021/03/15 07:28:47;;;;;;;11.00;4.38;;;;;;;3.76;90.83;100524.47;5039870;28;20042;-81
2021/03/15 07:31:19;;;;;;;15.40;4.63;;;;;;;3.79;91.39;100519.88;5019607;28;20051;-79
2021/03/15 07:34:05;;;;;;;13.73;4.90;;;;;;;3.81;91.13;100510.22;4985175;28;20050;-80
2021/03/15 07:36:33;;;;;;;22.83;4.32;;;;;;;3.90;91.53;100513.94;4988026;28;20053;-79
2021/03/15 07:39:07;;;;;;;15.40;4.65;;;;;;;3.93;91.17;100511.09;4982319;28;20060;-78
2021/03/15 07:41:36;;;;;;;15.13;4.25;;;;;;;3.92;90.92;100512.06;4972880;28;20046;-80
2021/03/15 07:44:17;;;;;;;17.50;4.85;;;;;;;3.84;91.57;100522.13;4985031;28;20041;-79
2021/03/15 07:46:45;;;;;;;16.55;4.43;;;;;;;3.74;92.00;100521.16;4999021;28;20095;-79
2021/03/15 07:49:21;;;;;;;14.30;4.80;;;;;;;3.69;92.65;100531.81;4971702;28;20057;-80
2021/03/15 07:51:54;;;;;;;13.93;4.85;;;;;;;3.60;92.99;100517.75;4964998;28;20050;-79
2021/03/15 07:54:25;;;;;;;19.75;5.15;;;;;;;3.59;93.55;100529.06;4993542;28;20057;-80
2021/03/15 07:57:10;;;;;;;23.60;5.40;;;;;;;3.58;94.15;100524.81;4994882;28;20057;-79
2021/03/15 07:59:37;;;;;;;13.88;4.82;;;;;;;3.53;93.62;100524.28;4980690;28;20038;-79
2021/03/15 08:02:03;;;;;;;16.25;4.70;;;;;;;3.62;93.92;100526.25;4976534;28;20416;-79
2021/03/15 08:04:29;;;;;;;19.27;5.47;;;;;;;3.61;93.74;100527.19;4993019;28;20050;-80
2021/03/15 08:06:56;;;;;;;13.18;4.95;;;;;;;3.66;94.11;100522.50;5004194;28;20037;-80
2021/03/15 08:09:21;;;;;;;13.15;5.15;;;;;;;3.68;94.46;100506.84;4978850;28;20081;-79
2021/03/15 08:11:49;;;;;;;16.70;5.10;;;;;;;3.77;94.34;100529.53;5000498;28;20099;-78
2021/03/15 08:14:15;;;;;;;15.57;4.82;;;;;;;3.92;94.68;100526.78;4974594;28;20057;-80
2021/03/15 08:16:42;;;;;;;20.13;4.88;;;;;;;3.97;93.32;100514.31;5000630;28;20049;-79
2021/03/15 08:19:09;;;;;;;18.33;5.53;;;;;;;4.04;93.55;100510.34;4966889;28;20054;-82
2021/03/15 08:21:37;;;;;;;18.75;4.80;;;;;;;4.14;94.15;100520.91;4980415;28;20513;-79
2021/03/15 08:24:04;;;;;;;23.67;5.35;;;;;;;4.26;94.34;100526.03;4975560;28;20051;-78
2021/03/15 08:26:30;;;;;;;12.30;3.90;;;;;;;4.36;93.72;100518.41;4992582;28;20066;-77
2021/03/15 08:28:59;;;;;;;17.70;4.80;;;;;;;4.54;93.77;100528.38;4977431;28;20068;-78
2021/03/15 08:31:46;;;;;;;14.82;4.30;;;;;;;4.59;93.07;100524.50;4964866;28;20051;-79
2021/03/15 08:34:14;;;;;;;18.67;4.03;;;;;;;4.60;92.88;100518.38;4982688;28;20122;-78
2021/03/15 08:36:44;;;;;;;16.52;4.40;;;;;;;4.62;92.18;100516.50;4985823;28;20046;-78
2021/03/15 08:39:40;;;;;;;24.42;4.65;;;;;;;4.82;91.54;100519.38;4983469;28;20052;-78
2021/03/15 08:42:08;;;;;;;19.98;4.22;;;;;;;4.97;91.51;100525.19;4997189;28;20038;-80
2021/03/15 08:44:45;;;;;;;17.65;4.18;;;;;;;4.95;91.11;100514.09;5001546;28;20045;-80
2021/03/15 08:47:12;;;;;;;19.20;3.78;;;;;;;5.00;91.78;100511.97;5011538;28;20038;-79
2021/03/15 08:49:42;;;;;;;13.77;4.15;;;;;;;5.15;91.70;100518.59;4985433;28;20065;-79
2021/03/15 08:52:33;;;;;;;16.25;3.15;;;;;;;5.05;91.16;100509.88;4990089;28;20710;-78
2021/03/15 08:54:59;;;;;;;20.45;3.95;;;;;;;5.54;92.33;100528.66;4964142;28;20065;-77
2021/03/15 08:57:35;;;;;;;19.63;3.55;;;;;;;5.91;91.63;100524.00;4973977;28;20093;-78
2021/03/15 09:00:22;;;;;;;11.40;2.85;;;;;;;5.79;88.13;100535.38;4963979;28;20053;-79
2021/03/15 09:02:49;;;;;;;11.18;2.67;;;;;;;5.42;88.68;100517.44;4988612;28;20069;-78
2021/03/15 09:05:23;;;;;;;16.30;3.20;;;;;;;5.16;90.36;100517.69;4997916;28;20046;-79
2021/03/15 09:07:50;;;;;;;14.40;3.67;;;;;;;5.11;92.30;100529.38;4995262;28;20058;-77
2021/03/15 09:10:25;;;;;;;15.23;3.42;;;;;;;5.12;91.95;100538.81;4969931;28;20145;-78
2021/03/15 09:13:09;;;;;;;12.85;2.90;;;;;;;5.07;92.43;100534.78;5007273;28;20149;-77
2021/03/15 09:15:35;;;;;;;22.20;3.97;;;;;;;4.93;93.79;100535.00;4968656;28;20057;-77
2021/03/15 09:18:37;;;;;;;15.02;3.30;;;;;;;5.04;93.34;100537.59;4981875;28;20054;-78
2021/03/15 09:21:22;;;;;;;22.25;3.35;;;;;;;5.16;91.25;100532.44;4966563;28;20141;-77
2021/03/15 09:23:47;;;;;;;15.13;2.78;;;;;;;5.31;91.71;100536.44;5024695;28;20041;-77
2021/03/15 09:26:25;;;;;;;13.55;2.70;;;;;;;5.36;91.30;100528.31;4985366;28;20072;-78
2021/03/15 09:28:56;;;;;;;14.57;2.40;;;;;;;5.31;92.11;100527.81;5005451;28;20073;-78
2021/03/15 09:31:22;;;;;;;13.18;2.28;;;;;;;5.45;90.76;100531.03;4964649;28;20041;-79
2021/03/15 09:33:48;;;;;;;12.43;2.75;;;;;;;5.47;90.10;100521.31;4983156;28;20057;-79
2021/03/15 09:36:27;;;;;;;11.60;2.03;;;;;;;5.71;88.70;100535.13;4978683;28;20505;-78
2021/03/15 09:38:54;;;;;;;19.08;2.78;;;;;;;5.62;89.40;100521.09;4979047;28;20060;-79
2021/03/15 09:41:25;;;;;;;16.88;3.08;;;;;;;6.01;88.96;100516.34;4981148;28;20045;-79
2021/03/15 09:43:52;;;;;;;16.50;2.63;;;;;;;6.18;87.31;100515.81;5012222;28;20041;-77
2021/03/15 09:46:27;;;;;;;17.15;2.50;;;;;;;6.15;87.40;100502.19;4981685;28;20073;-79
2021/03/15 09:48:53;;;;;;;10.07;2.05;;;;;;;6.12;86.54;100505.03;4968685;28;20049;-76
2021/03/15 09:51:27;;;;;;;16.67;2.40;;;;;;;6.20;88.04;100513.06;4990071;28;20117;-79
2021/03/15 09:54:16;;;;;;;15.77;2.38;;;;;;;6.07;87.34;100515.84;4966546;28;20050;-81
2021/03/15 09:56:59;;;;;;;15.73;2.40;;;;;;;5.72;87.77;100519.41;5013678;28;20066;-78
2021/03/15 09:59:33;;;;;;;14.02;2.15;;;;;;;5.50;90.07;100516.84;4989736;28;20037;-78
2021/03/15 10:02:00;;;;;;;17.25;2.20;;;;;;;5.44;90.53;100516.38;4964564;28;20065;-78
2021/03/15 10:04:37;;;;;;;15.75;2.65;;;;;;;5.49;90.22;100513.41;4993411;28;20444;-79
2021/03/15 10:07:21;;;;;;;12.88;2.40;;;;;;;5.34;92.86;100520.63;4980144;28;20576;-79
2021/03/15 10:10:12;;;;;;;25.55;2.90;;;;;;;5.30;92.33;100513.19;4999362;28;20046;-77
2021/03/15 10:13:06;;;;;;;22.73;3.13;;;;;;;5.37;92.73;100527.34;5017978;28;20064;-79
2021/03/15 10:15:50;;;;;;;12.35;1.98;;;;;;;5.35;92.93;100511.03;4987474;28;20104;-80
2021/03/15 10:18:50;;;;;;;17.85;2.55;;;;;;;5.45;93.88;100514.59;4985716;28;20050;-79
2021/03/15 10:21:28;;;;;;;19.20;2.50;;;;;;;5.70;92.92;100512.69;4983594;28;20045;-78
2021/03/15 10:23:57;;;;;;;27.13;3.65;;;;;;;5.71;92.28;100516.94;4994806;28;20041;-76
2021/03/15 10:26:23;;;;;;;21.58;3.05;;;;;;;5.82;92.35;100502.13;4988158;28;20053;-79
2021/03/15 10:28:55;;;;;;;26.38;3.40;;;;;;;5.81;92.57;100507.47;5003140;28;20043;-80
2021/03/15 10:31:25;;;;;;;27.65;3.38;;;;;;;6.03;90.82;100520.47;5017630;28;20073;-80
2021/03/15 10:33:51;;;;;;;19.77;3.38;;;;;;;5.95;91.93;100528.06;4963856;28;20046;-79
2021/03/15 10:36:21;;;;;;;31.73;4.15;;;;;;;5.88;90.80;100529.47;4970830;28;20451;-79
2021/03/15 10:39:00;;;;;;;31.98;4.18;;;;;;;5.73;92.31;100523.69;4981246;28;20648;-78
2021/03/15 10:41:26;;;;;;;29.35;4.45;;;;;;;5.70;92.72;100526.50;4966294;28;20089;-79
2021/03/15 10:43:51;;;;;;;28.90;3.50;;;;;;;5.74;93.46;100522.72;4980821;28;20124;-79
2021/03/15 10:46:26;;;;;;;34.55;4.18;;;;;;;5.80;91.65;100509.25;4966521;28;20061;-80
2021/03/15 10:48:56;;;;;;;45.72;4.38;;;;;;;5.71;93.74;100516.94;5006145;28;20066;-80
2021/03/15 10:51:23;;;;;;;27.30;4.10;;;;;;;5.68;91.54;100511.97;4980085;28;20118;-80
2021/03/15 10:53:54;;;;;;;39.42;5.63;;;;;;;5.65;91.82;100508.66;4998973;28;20037;-81
2021/03/15 10:56:41;;;;;;;34.58;4.30;;;;;;;6.07;92.66;100507.19;5008022;28;20072;-79
2021/03/15 10:59:33;;;;;;;33.88;3.72;;;;;;;6.66;89.13;100498.06;5005382;28;20049;-76
2021/03/15 11:02:01;;;;;;;37.58;3.88;;;;;;;6.80;89.23;100501.19;4986523;28;20046;-77
2021/03/15 11:04:37;;;;;;;;;;;;;;;6.79;89.27;100509.13;5000282;28;20069;-80
2021/03/15 11:07:22;;;;;;;23.15;3.53;;;;;;;6.58;87.48;100490.88;5002385;28;20363;-77
2021/03/15 11:09:59;;;;;;;26.15;3.65;;;;;;;6.46;86.77;100497.09;5020094;28;20046;-76
2021/03/15 11:12:34;;;;;;;23.70;3.33;;;;;;;6.46;87.61;100504.91;4980735;28;20070;-79
2021/03/15 11:15:10;;;;;;;28.70;3.40;;;;;;;6.24;87.27;100512.69;5003127;28;20133;-78
2021/03/15 11:17:39;;;;;;;29.75;3.75;;;;;;;6.22;87.54;100508.56;4971947;28;20648;-80
2021/03/15 11:20:08;;;;;;;24.63;3.20;;;;;;;6.14;86.76;100514.41;4971209;28;20050;-80
2021/03/15 11:22:51;;;;;;;32.72;4.40;;;;;;;6.13;86.69;100497.09;4981712;28;20133;-80
2021/03/15 11:25:23;;;;;;;27.08;3.47;;;;;;;6.06;84.78;100498.53;4971617;28;20042;-78
2021/03/15 11:28:11;;;;;;;25.77;3.60;;;;;;;6.22;86.64;100513.78;5003798;28;20066;-81
2021/03/15 11:30:41;;;;;;;29.13;3.53;;;;;;;6.21;83.79;100504.28;5000047;28;20042;-80
2021/03/15 11:33:28;;;;;;;34.85;4.38;;;;;;;6.32;85.45;100503.44;5019799;28;20048;-80
2021/03/15 11:36:15;;;;;;;30.20;3.42;;;;;;;6.34;84.32;100517.97;5002014;28;20050;-80
2021/03/15 11:38:53;;;;;;;24.80;3.03;;;;;;;6.44;82.80;100512.84;5003435;28;20050;-80
2021/03/15 11:41:27;;;;;;;21.27;2.55;;;;;;;6.64;83.46;100519.03;4975791;28;20034;-81
2021/03/15 11:43:53;;;;;;;17.27;2.75;;;;;;;7.15;83.26;100530.47;4987178;28;20053;-80
2021/03/15 11:46:19;;;;;;;18.88;2.88;;;;;;;7.73;80.02;100527.25;4993400;28;20044;-80
2021/03/15 11:48:46;;;;;;;21.70;3.08;;;;;;;7.42;79.76;100529.88;5004225;28;20505;-80